Time;durP1;ratioP1;P1;durP2;ratioP2;P2;SDS_P1;SDS_P2;PMS_P1;PMS_P2;Temp;Humidity;BMP_temperature;BMP_pressure;BME280_temperature;BME280_humidity;BME280_pressure;Samples;Min_cycle;Max_cycle;Signal;HPM_P1;HPM_P2
2022/03/04 00:02:11;;;;;;;20.10;13.43;;;-0.60;99.90;;;;;;5079579;28;20898;-61
2022/03/04 00:04:47;;;;;;;21.13;15.03;;;-0.70;99.90;;;;;;5078659;28;20571;-59
2022/03/04 00:07:17;;;;;;;19.33;14.37;;;-0.70;99.90;;;;;;5079169;28;20462;-59
2022/03/04 00:09:47;;;;;;;21.63;14.73;;;-0.70;99.90;;;;;;5079082;28;20849;-61
2022/03/04 00:12:14;;;;;;;17.33;13.87;;;-0.70;99.90;;;;;;5078706;28;20512;-62
2022/03/04 00:14:43;;;;;;;20.20;14.37;;;-0.70;99.90;;;;;;5077410;28;20439;-59
2022/03/04 00:17:12;;;;;;;22.70;14.93;;;-0.80;99.90;;;;;;5078951;28;20468;-59
2022/03/04 00:19:41;;;;;;;26.23;15.20;;;-0.80;99.90;;;;;;5078342;28;20492;-62
2022/03/04 00:22:13;;;;;;;20.33;14.20;;;-0.80;1.00;;;;;;5078463;28;22247;-62
2022/03/04 00:24:40;;;;;;;21.83;15.30;;;-0.90;1.00;;;;;;5078555;28;20531;-62
2022/03/04 00:27:12;;;;;;;22.03;15.60;;;-0.90;1.00;;;;;;5078679;28;20944;-62
2022/03/04 00:29:42;;;;;;;21.53;14.80;;;-0.90;1.00;;;;;;5079185;28;20492;-61
2022/03/04 00:32:14;;;;;;;19.47;15.83;;;-0.90;1.00;;;;;;5078878;28;20501;-62
2022/03/04 00:34:43;;;;;;;25.83;15.37;;;-0.80;1.00;;;;;;5078627;28;20462;-62
2022/03/04 00:37:17;;;;;;;19.93;14.67;;;-0.90;1.00;;;;;;5078364;28;20553;-60
2022/03/04 00:39:47;;;;;;;23.50;13.40;;;-0.90;1.00;;;;;;5078682;28;20461;-62
2022/03/04 00:42:14;;;;;;;26.17;16.90;;;-0.90;1.00;;;;;;5077937;28;20460;-62
2022/03/04 00:44:41;;;;;;;22.60;15.70;;;-0.90;1.00;;;;;;5078149;28;20890;-62
2022/03/04 00:47:08;;;;;;;22.57;15.23;;;-0.90;1.00;;;;;;5077236;28;20485;-62
2022/03/04 00:49:39;;;;;;;20.77;14.40;;;-0.90;1.00;;;;;;5078507;28;20465;-61
2022/03/04 00:52:07;;;;;;;19.97;14.83;;;-0.90;1.00;;;;;;5077690;28;20492;-62
2022/03/04 00:54:41;;;;;;;22.80;15.33;;;-0.90;99.90;;;;;;5077836;28;20473;-62
2022/03/04 00:57:20;;;;;;;20.97;14.70;;;-1.00;99.90;;;;;;5077488;28;20431;-61
2022/03/04 00:59:47;;;;;;;24.23;16.17;;;-1.00;99.90;;;;;;5075866;28;20465;-62
2022/03/04 01:02:20;;;;;;;25.47;15.77;;;-1.00;1.00;;;;;;5077831;28;20465;-62
2022/03/04 01:04:50;;;;;;;22.87;14.27;;;-1.10;1.00;;;;;;5078175;28;20480;-60
2022/03/04 01:07:20;;;;;;;21.67;15.80;;;-1.20;1.00;;;;;;5078008;28;20461;-62
2022/03/04 01:09:51;;;;;;;22.77;14.57;;;-1.10;1.00;;;;;;5077432;28;20906;-61
2022/03/04 01:12:18;;;;;;;21.40;15.30;;;-1.20;1.00;;;;;;5077173;28;20496;-62
2022/03/04 01:14:55;;;;;;;20.93;14.93;;;-1.20;1.00;;;;;;5077651;28;20490;-62
2022/03/04 01:17:22;;;;;;;28.73;15.43;;;-1.20;1.00;;;;;;5077711;28;20471;-62
2022/03/04 01:19:55;;;;;;;23.10;15.83;;;-1.20;1.00;;;;;;5076599;28;20484;-62
2022/03/04 01:22:29;;;;;;;21.20;15.20;;;-1.20;1.00;;;;;;5078146;28;20453;-61
2022/03/04 01:24:58;;;;;;;24.23;15.60;;;-1.30;1.00;;;;;;5081949;28;20468;-60
2022/03/04 01:27:26;;;;;;;21.83;14.83;;;-1.30;1.00;;;;;;5097946;28;20886;-62
2022/03/04 01:29:58;;;;;;;22.83;14.20;;;-1.30;1.00;;;;;;5084827;28;20898;-60
2022/03/04 01:32:32;;;;;;;20.30;13.97;;;-1.30;1.00;;;;;;5077508;28;20482;-60
2022/03/04 01:34:59;;;;;;;24.13;15.17;;;-1.40;1.00;;;;;;5092205;28;20472;-57
2022/03/04 01:37:35;;;;;;;21.73;15.20;;;-1.40;1.00;;;;;;5097418;28;20534;-59
2022/03/04 01:40:07;;;;;;;18.83;14.30;;;-1.40;1.00;;;;;;5088614;28;20472;-61
2022/03/04 01:42:37;;;;;;;23.63;15.00;;;-1.40;1.00;;;;;;5076957;28;20736;-62
2022/03/04 01:45:09;;;;;;;21.50;14.50;;;-1.50;1.00;;;;;;5077118;28;20461;-58
2022/03/04 01:47:39;;;;;;;18.57;13.30;;;-1.50;1.00;;;;;;5078017;28;20460;-62
2022/03/04 01:50:09;;;;;;;26.13;13.77;;;-1.60;1.00;;;;;;5076563;28;20922;-62
2022/03/04 01:52:36;;;;;;;19.63;13.63;;;-1.60;1.00;;;;;;5076348;28;20527;-61
2022/03/04 01:55:12;;;;;;;21.43;14.40;;;-1.70;1.00;;;;;;5077190;28;20493;-61
2022/03/04 01:57:49;;;;;;;26.20;14.70;;;-1.70;1.00;;;;;;5089448;28;20457;-59
2022/03/04 02:03:11;;;;;;;22.23;14.40;;;-1.70;1.00;;;;;;5073576;28;20440;-61
2022/03/04 02:05:42;;;;;;;20.77;13.73;;;-1.60;1.00;;;;;;5077091;28;20463;-58
2022/03/04 02:08:09;;;;;;;20.53;14.07;;;-1.60;1.00;;;;;;5077566;28;20761;-60
2022/03/04 02:10:38;;;;;;;22.13;14.37;;;-1.60;1.00;;;;;;5076692;28;20818;-61
2022/03/04 02:13:05;;;;;;;20.40;13.37;;;-1.60;1.00;;;;;;5076344;28;20477;-61
2022/03/04 02:15:33;;;;;;;21.30;14.10;;;-1.60;1.00;;;;;;5057552;28;20467;-58
2022/03/04 02:18:17;;;;;;;22.13;15.13;;;-1.60;1.00;;;;;;5056270;28;20490;-60
2022/03/04 02:20:54;;;;;;;17.60;12.97;;;-1.70;1.00;;;;;;5085574;28;20456;-60
2022/03/04 02:23:25;;;;;;;23.43;12.93;;;-1.70;1.00;;;;;;5085653;28;20464;-60
2022/03/04 02:26:01;;;;;;;20.23;13.50;;;-1.80;1.00;;;;;;5081092;28;20801;-59
2022/03/04 02:28:31;;;;;;;21.17;14.70;;;-1.80;1.00;;;;;;5061421;28;20473;-57
2022/03/04 02:31:01;;;;;;;17.10;11.93;;;-1.80;1.00;;;;;;5061130;28;20462;-58
2022/03/04 02:33:31;;;;;;;21.97;13.60;;;-1.90;1.00;;;;;;5072610;28;20485;-58
2022/03/04 02:36:00;;;;;;;19.67;12.87;;;-1.90;1.00;;;;;;5081069;28;20489;-58
2022/03/04 02:38:32;;;;;;;21.47;13.60;;;-2.00;1.00;;;;;;5080435;28;20814;-60
2022/03/04 02:41:04;;;;;;;22.23;13.60;;;-1.90;1.00;;;;;;5080926;28;20465;-60
2022/03/04 02:43:34;;;;;;;20.73;14.07;;;-1.90;1.00;;;;;;5080397;28;20476;-58
2022/03/04 02:46:05;;;;;;;24.00;15.30;;;-2.00;1.00;;;;;;5080315;28;20457;-61
2022/03/04 02:48:37;;;;;;;20.10;13.93;;;-2.00;1.00;;;;;;5083338;28;20472;-58
2022/03/04 02:51:09;;;;;;;20.87;14.13;;;-1.90;1.00;;;;;;5094965;28;20452;-59
2022/03/04 02:53:38;;;;;;;20.10;12.80;;;-2.00;1.00;;;;;;5094627;28;20880;-59
2022/03/04 02:56:08;;;;;;;21.83;13.30;;;-2.00;1.00;;;;;;5084524;28;20818;-61
2022/03/04 02:58:36;;;;;;;24.50;15.40;;;-2.00;1.00;;;;;;5088971;28;20735;-62
2022/03/04 03:01:04;;;;;;;21.17;13.47;;;-2.00;1.00;;;;;;5080367;28;20460;-61
2022/03/04 03:03:31;;;;;;;21.07;13.50;;;-2.00;1.00;;;;;;5080111;28;20457;-61
2022/03/04 03:06:00;;;;;;;20.10;14.07;;;-2.00;1.00;;;;;;5080498;28;20469;-61
2022/03/04 03:08:33;;;;;;;21.77;14.63;;;-2.10;1.00;;;;;;5080247;28;20749;-61
2022/03/04 03:11:12;;;;;;;19.00;13.60;;;-2.10;1.00;;;;;;5080673;28;20764;-61
2022/03/04 03:13:39;;;;;;;20.07;13.33;;;-2.10;1.00;;;;;;5080275;28;20589;-61
2022/03/04 03:16:08;;;;;;;20.97;14.67;;;-2.20;1.00;;;;;;5079944;28;20465;-61
2022/03/04 03:18:40;;;;;;;19.40;13.20;;;-2.20;1.00;;;;;;5079376;28;20488;-58
2022/03/04 03:21:14;;;;;;;21.97;14.80;;;-2.10;1.00;;;;;;5079648;28;20464;-60
2022/03/04 03:23:47;;;;;;;20.80;14.20;;;-2.20;1.00;;;;;;5080366;28;20443;-59
2022/03/04 03:26:19;;;;;;;20.97;14.57;;;-2.20;1.00;;;;;;5078401;28;20468;-61
2022/03/04 03:28:46;;;;;;;22.40;14.33;;;-2.20;1.00;;;;;;5079535;28;20525;-55
2022/03/04 03:31:13;;;;;;;20.17;13.73;;;-2.20;1.00;;;;;;5079383;28;20522;-61
2022/03/04 03:33:42;;;;;;;21.00;13.97;;;-2.30;1.00;;;;;;5079488;28;20495;-60
2022/03/04 03:36:17;;;;;;;20.37;13.77;;;-2.30;1.00;;;;;;5079366;28;20463;-60
2022/03/04 03:38:46;;;;;;;24.10;16.53;;;-2.30;1.00;;;;;;5079585;28;20461;-61
2022/03/04 03:41:15;;;;;;;23.63;16.00;;;-2.30;1.00;;;;;;5079039;28;20511;-55
2022/03/04 03:43:49;;;;;;;22.67;14.40;;;-2.30;1.00;;;;;;5079688;28;20489;-61
2022/03/04 03:46:21;;;;;;;19.33;13.23;;;-2.30;1.00;;;;;;5078518;28;20873;-55
2022/03/04 03:48:48;;;;;;;21.80;14.30;;;-2.30;1.00;;;;;;5079712;28;20467;-56
2022/03/04 03:51:17;;;;;;;20.50;13.97;;;-2.30;1.00;;;;;;5079167;28;20487;-58
2022/03/04 03:53:46;;;;;;;19.70;13.90;;;-2.40;1.00;;;;;;5079628;28;20492;-59
2022/03/04 03:56:16;;;;;;;24.90;16.30;;;-2.30;1.00;;;;;;5078743;28;20933;-58
2022/03/04 03:58:47;;;;;;;21.10;14.47;;;-2.40;1.00;;;;;;5079393;28;20833;-58
2022/03/04 04:01:14;;;;;;;20.60;13.77;;;-2.40;1.00;;;;;;5079364;28;20476;-61
2022/03/04 04:03:44;;;;;;;21.50;15.00;;;-2.40;1.00;;;;;;5079576;28;20556;-55
2022/03/04 04:06:14;;;;;;;20.13;15.10;;;-2.40;1.00;;;;;;5079129;28;20464;-61
2022/03/04 04:08:44;;;;;;;21.27;14.60;;;-2.50;1.00;;;;;;5079271;28;20763;-61
2022/03/04 04:11:21;;;;;;;25.97;15.43;;;-2.60;1.00;;;;;;5079719;28;20469;-61
2022/03/04 04:13:53;;;;;;;21.60;13.83;;;-2.50;1.00;;;;;;5078852;28;20489;-61
2022/03/04 04:16:22;;;;;;;23.03;15.90;;;-2.50;1.00;;;;;;5078728;28;20469;-61
2022/03/04 04:18:52;;;;;;;21.90;15.60;;;-2.50;1.00;;;;;;5077972;28;20702;-61
2022/03/04 04:21:21;;;;;;;25.10;15.10;;;-2.50;1.00;;;;;;5093526;28;20454;-59
2022/03/04 04:23:51;;;;;;;25.20;15.00;;;-2.60;1.00;;;;;;5087437;28;20443;-61
2022/03/04 04:26:22;;;;;;;23.93;15.43;;;-2.60;1.00;;;;;;5098636;28;20900;-61
2022/03/04 04:28:50;;;;;;;24.03;14.53;;;-2.60;1.00;;;;;;5082379;28;20838;-59
2022/03/04 04:31:19;;;;;;;18.70;14.60;;;-2.70;1.00;;;;;;5079327;28;20475;-60
2022/03/04 04:33:52;;;;;;;20.77;14.47;;;-2.80;1.00;;;;;;5078578;28;20803;-56
2022/03/04 04:36:24;;;;;;;24.90;16.37;;;-2.70;1.00;;;;;;5078505;28;20825;-61
2022/03/04 04:38:53;;;;;;;24.10;14.90;;;-2.70;1.00;;;;;;5077764;28;20475;-61
2022/03/04 04:41:20;;;;;;;21.60;15.03;;;-2.80;1.00;;;;;;5079661;28;20802;-59
2022/03/04 04:43:47;;;;;;;25.70;16.57;;;-2.90;1.00;;;;;;5098261;28;20437;-60
2022/03/04 04:46:16;;;;;;;25.27;15.20;;;-2.90;1.00;;;;;;5095266;28;20548;-59
2022/03/04 04:48:49;;;;;;;26.07;16.50;;;-2.90;1.00;;;;;;5092258;28;20465;-59
2022/03/04 04:51:24;;;;;;;22.67;14.80;;;-2.90;1.00;;;;;;5087141;28;20474;-57
2022/03/04 04:53:54;;;;;;;26.30;17.03;;;-2.80;1.00;;;;;;5085937;28;20578;-58
2022/03/04 04:56:27;;;;;;;23.00;16.30;;;-2.70;1.00;;;;;;5078705;28;20820;-56
2022/03/04 04:58:54;;;;;;;24.07;15.43;;;-2.90;1.00;;;;;;5077691;28;20468;-58
2022/03/04 05:01:24;;;;;;;21.67;14.80;;;-2.80;1.00;;;;;;5078289;28;20485;-58
2022/03/04 05:03:52;;;;;;;28.17;16.97;;;-2.80;1.00;;;;;;5078009;28;20833;-58
2022/03/04 05:06:25;;;;;;;24.13;16.10;;;-2.80;1.00;;;;;;5078199;28;20956;-61
2022/03/04 05:08:55;;;;;;;27.83;16.27;;;-2.80;1.00;;;;;;5078196;28;20968;-59
2022/03/04 05:11:22;;;;;;;31.27;16.67;;;-2.80;1.00;;;;;;5077797;28;20472;-56
2022/03/04 05:13:49;;;;;;;23.90;14.90;;;-2.80;1.00;;;;;;5077939;28;20481;-57
2022/03/04 05:16:23;;;;;;;23.53;14.40;;;-2.90;1.00;;;;;;5077854;28;20537;-58
2022/03/04 05:18:56;;;;;;;23.43;15.83;;;-2.80;1.00;;;;;;5077184;28;20545;-61
2022/03/04 05:21:24;;;;;;;22.03;15.07;;;-2.80;1.00;;;;;;5079711;28;20962;-60
2022/03/04 05:24:00;;;;;;;30.83;14.53;;;-2.70;1.00;;;;;;5078064;28;20474;-60
2022/03/04 05:26:28;;;;;;;30.17;15.60;;;-2.60;1.00;;;;;;5091315;28;20475;-56
2022/03/04 05:28:56;;;;;;;26.57;16.90;;;-2.70;1.00;;;;;;5098269;28;20562;-58
2022/03/04 05:31:23;;;;;;;27.47;15.00;;;-2.70;1.00;;;;;;5081982;28;20476;-58
2022/03/04 05:33:52;;;;;;;26.40;16.03;;;-2.70;1.00;;;;;;5076458;28;20500;-58
2022/03/04 05:36:19;;;;;;;24.13;15.67;;;-2.70;1.00;;;;;;5088971;28;20472;-59
2022/03/04 05:38:46;;;;;;;23.13;14.97;;;-2.70;1.00;;;;;;5089064;28;20473;-61
2022/03/04 05:41:19;;;;;;;24.90;15.30;;;-2.70;1.00;;;;;;5076514;28;20464;-61
2022/03/04 05:43:47;;;;;;;22.60;14.50;;;-2.70;1.00;;;;;;5076480;28;20855;-60
2022/03/04 05:46:15;;;;;;;21.80;14.40;;;-2.70;1.00;;;;;;5076851;28;20463;-61
2022/03/04 05:48:47;;;;;;;25.40;16.40;;;-2.80;1.00;;;;;;5085724;28;20809;-60
2022/03/04 05:51:21;;;;;;;20.70;13.80;;;-2.70;1.00;;;;;;5093116;28;20460;-58
2022/03/04 05:53:49;;;;;;;24.67;14.70;;;-2.80;1.00;;;;;;5091289;28;20688;-58
2022/03/04 05:56:17;;;;;;;29.47;16.30;;;-2.90;1.00;;;;;;5087597;28;20469;-55
2022/03/04 05:58:44;;;;;;;20.77;14.20;;;-2.90;1.00;;;;;;5091448;28;20486;-57
2022/03/04 06:01:16;;;;;;;23.93;14.77;;;-3.00;1.00;;;;;;5071817;28;20795;-58
2022/03/04 06:03:49;;;;;;;24.33;15.37;;;-3.00;1.00;;;;;;5076526;28;20464;-59
2022/03/04 06:06:23;;;;;;;27.43;15.40;;;-2.90;1.00;;;;;;5076855;28;20892;-61
2022/03/04 06:08:53;;;;;;;22.53;15.00;;;-3.00;1.00;;;;;;5077090;28;20467;-61
2022/03/04 06:11:27;;;;;;;25.70;16.53;;;-3.10;1.00;;;;;;5077300;28;20468;-58
2022/03/04 06:13:54;;;;;;;29.97;17.20;;;-3.10;1.00;;;;;;5076599;28;20484;-55
2022/03/04 06:16:23;;;;;;;22.90;14.60;;;-3.10;1.00;;;;;;5076330;28;20538;-61
2022/03/04 06:18:55;;;;;;;24.57;14.70;;;-3.10;1.00;;;;;;5076511;28;20769;-57
2022/03/04 06:21:29;;;;;;;27.57;18.13;;;-3.00;1.00;;;;;;5076855;28;20467;-60
2022/03/04 06:23:56;;;;;;;31.23;15.40;;;-2.90;1.00;;;;;;5076308;28;20464;-58
2022/03/04 06:26:23;;;;;;;25.67;16.97;;;-2.90;1.00;;;;;;5077023;28;20469;-58
2022/03/04 06:28:50;;;;;;;27.53;18.30;;;-2.80;1.00;;;;;;5074759;28;20947;-58
2022/03/04 06:31:20;;;;;;;26.80;15.90;;;-2.80;1.00;;;;;;5076780;28;20806;-57
2022/03/04 06:33:50;;;;;;;27.97;16.67;;;-2.70;1.00;;;;;;5075469;28;20545;-60
2022/03/04 06:36:19;;;;;;;25.27;16.00;;;-2.70;1.00;;;;;;5057797;28;20806;-55
2022/03/04 06:38:50;;;;;;;28.07;17.83;;;-2.70;1.00;;;;;;5076466;28;20460;-52
2022/03/04 06:41:26;;;;;;;28.60;17.13;;;-2.50;1.00;;;;;;5075799;28;21070;-53
2022/03/04 06:43:53;;;;;;;25.07;16.67;;;-2.50;1.00;;;;;;5076766;28;20884;-50
2022/03/04 06:46:23;;;;;;;29.00;20.80;;;-2.50;1.00;;;;;;5076284;28;20464;-54
2022/03/04 06:48:50;;;;;;;33.60;20.53;;;-2.50;1.00;;;;;;5076654;28;20457;-55
2022/03/04 06:51:17;;;;;;;27.57;17.77;;;-2.50;1.00;;;;;;5076232;28;20473;-56
2022/03/04 06:53:50;;;;;;;21.97;14.70;;;-2.50;1.00;;;;;;5076196;28;20485;-53
2022/03/04 06:56:17;;;;;;;25.17;16.83;;;-2.40;1.00;;;;;;5075810;28;20522;-56
2022/03/04 06:58:44;;;;;;;24.77;15.00;;;-2.30;1.00;;;;;;5076563;28;20461;-56
2022/03/04 07:01:14;;;;;;;23.13;15.23;;;-2.30;1.00;;;;;;5075777;28;20480;-54
2022/03/04 07:03:43;;;;;;;25.17;16.37;;;-2.30;1.00;;;;;;5076795;28;20526;-56
2022/03/04 07:06:16;;;;;;;23.20;14.87;;;-2.20;1.00;;;;;;5076727;28;20457;-59
2022/03/04 07:08:46;;;;;;;26.77;16.33;;;-2.10;1.00;;;;;;5082258;28;20726;-60
2022/03/04 07:11:24;;;;;;;25.17;15.47;;;-2.00;1.00;;;;;;5081749;28;20519;-60
2022/03/04 07:13:52;;;;;;;24.77;16.40;;;-1.80;1.00;;;;;;5082296;28;21019;-60
2022/03/04 07:16:22;;;;;;;24.17;15.73;;;-1.70;1.00;;;;;;5081228;28;20475;-60
2022/03/04 07:18:49;;;;;;;23.23;16.10;;;-1.60;1.00;;;;;;5081240;28;20983;-60
2022/03/04 07:21:22;;;;;;;26.73;16.73;;;-1.40;1.00;;;;;;5080416;28;20464;-55
2022/03/04 07:23:51;;;;;;;26.60;15.93;;;-1.10;1.00;;;;;;5081740;28;20464;-60
2022/03/04 07:26:22;;;;;;;29.70;16.97;;;-0.90;1.00;;;;;;5081023;28;20478;-61
2022/03/04 07:28:53;;;;;;;22.63;14.63;;;-0.60;1.00;;;;;;5081798;28;20758;-61
2022/03/04 07:31:20;;;;;;;28.10;14.90;;;-0.30;1.00;;;;;;5081454;28;20498;-61
2022/03/04 07:33:50;;;;;;;20.50;13.63;;;0.10;1.00;;;;;;5080663;28;20471;-60
2022/03/04 07:36:17;;;;;;;25.27;15.83;;;0.30;1.00;;;;;;5080695;28;20467;-61
2022/03/04 07:38:46;;;;;;;24.27;15.60;;;0.70;1.00;;;;;;5080653;28;20466;-59
2022/03/04 07:41:16;;;;;;;25.33;16.73;;;1.00;1.00;;;;;;5079955;28;20463;-59
2022/03/04 07:43:45;;;;;;;27.50;15.90;;;1.40;1.00;;;;;;5080007;28;20918;-61
2022/03/04 07:46:14;;;;;;;26.27;16.67;;;1.70;1.00;;;;;;5081086;28;20457;-59
2022/03/04 07:48:41;;;;;;;23.80;17.60;;;2.00;1.00;;;;;;5080795;28;20469;-60
2022/03/04 07:51:10;;;;;;;26.00;18.07;;;2.30;1.00;;;;;;5081587;28;20464;-58
2022/03/04 07:53:37;;;;;;;29.10;16.80;;;2.60;1.00;;;;;;5081080;28;20906;-59
2022/03/04 07:56:07;;;;;;;33.37;18.70;;;2.80;1.00;;;;;;5080741;28;20493;-61
2022/03/04 07:58:40;;;;;;;24.63;18.07;;;3.10;1.00;;;;;;5079617;28;20469;-61
2022/03/04 08:01:11;;;;;;;29.83;19.13;;;3.30;1.00;;;;;;5079666;28;20465;-60
2022/03/04 08:03:43;;;;;;;25.50;17.50;;;3.60;99.90;;;;;;5079124;28;20469;-60
2022/03/04 08:06:17;;;;;;;27.03;19.30;;;3.70;99.90;;;;;;5080590;28;20454;-60
2022/03/04 08:08:47;;;;;;;30.80;20.63;;;4.10;99.90;;;;;;5079825;28;20469;-59
2022/03/04 08:11:17;;;;;;;23.80;18.00;;;4.40;99.90;;;;;;5080998;28;20465;-58
2022/03/04 08:13:44;;;;;;;44.47;20.80;;;4.70;99.90;;;;;;5079901;28;20462;-58
2022/03/04 08:16:13;;;;;;;28.23;20.77;;;5.00;99.90;;;;;;5079796;28;20496;-59
2022/03/04 08:18:52;;;;;;;29.97;18.90;;;5.20;99.90;;;;;;5078019;28;20489;-58
2022/03/04 08:21:24;;;;;;;31.27;20.27;;;5.40;99.90;;;;;;5079206;28;20461;-59
2022/03/04 08:23:54;;;;;;;29.37;20.73;;;5.70;99.90;;;;;;5078438;28;20559;-58
2022/03/04 08:26:27;;;;;;;25.47;18.37;;;6.00;99.90;;;;;;5059396;28;20887;-59
2022/03/04 08:28:59;;;;;;;29.63;19.03;;;6.40;99.90;;;;;;5078153;28;20453;-58
2022/03/04 08:31:27;;;;;;;31.70;20.67;;;6.70;99.90;;;;;;5078461;28;20511;-54
2022/03/04 08:33:56;;;;;;;26.80;19.60;;;6.90;99.90;;;;;;5077651;28;20453;-58
2022/03/04 08:36:28;;;;;;;28.83;18.30;;;7.20;99.90;;;;;;5077147;28;20562;-59
2022/03/04 08:39:02;;;;;;;23.20;18.50;;;7.60;99.90;;;;;;5077973;28;20457;-58
2022/03/04 08:41:30;;;;;;;26.60;16.33;;;7.90;99.90;;;;;;5078025;28;20506;-60
2022/03/04 08:44:03;;;;;;;24.97;17.73;;;7.90;99.90;;;;;;5077867;28;20461;-59
2022/03/04 08:46:36;;;;;;;26.50;18.20;;;8.00;99.90;;;;;;5077234;28;20515;-57
2022/03/04 08:49:09;;;;;;;22.87;17.37;;;8.30;99.90;;;;;;5075356;28;20914;-59
2022/03/04 08:51:37;;;;;;;30.23;18.23;;;8.20;99.90;;;;;;5077019;28;20898;-59
2022/03/04 08:54:05;;;;;;;24.20;19.40;;;8.50;99.90;;;;;;5077630;28;20464;-58
2022/03/04 08:56:36;;;;;;;25.00;18.27;;;8.70;99.90;;;;;;5077872;28;20755;-59
2022/03/04 08:59:09;;;;;;;27.17;17.27;;;8.90;99.90;;;;;;5078832;28;20859;-58
2022/03/04 09:01:38;;;;;;;23.90;18.77;;;8.90;99.90;;;;;;5078329;28;20544;-60
2022/03/04 09:04:05;;;;;;;26.07;18.47;;;9.20;99.90;;;;;;5078116;28;20864;-53
2022/03/04 09:06:36;;;;;;;20.40;17.33;;;9.10;99.90;;;;;;5076338;28;20457;-56
2022/03/04 09:09:09;;;;;;;21.70;19.17;;;9.30;99.90;;;;;;5077496;28;20469;-55
2022/03/04 09:11:36;;;;;;;24.40;17.93;;;9.40;99.90;;;;;;5077499;28;20465;-54
2022/03/04 09:14:10;;;;;;;19.93;17.77;;;9.90;99.90;;;;;;5077596;28;20469;-55
2022/03/04 09:16:39;;;;;;;19.60;16.70;;;10.20;99.90;;;;;;5069908;28;20887;-55
2022/03/04 09:19:08;;;;;;;21.40;18.07;;;10.50;99.90;;;;;;5076492;28;20492;-55
2022/03/04 09:21:38;;;;;;;25.83;17.90;;;10.70;99.90;;;;;;5070543;28;20462;-58
2022/03/04 09:24:07;;;;;;;21.90;17.20;;;10.70;99.90;;;;;;5077826;28;20906;-55
2022/03/04 09:26:35;;;;;;;23.70;19.10;;;10.60;99.90;;;;;;5074953;28;20550;-53
2022/03/04 09:29:02;;;;;;;20.67;17.70;;;10.80;99.90;;;;;;5075895;28;20486;-56
2022/03/04 09:31:31;;;;;;;23.47;18.60;;;10.90;99.90;;;;;;5077523;28;20460;-56
2022/03/04 09:34:02;;;;;;;23.10;18.17;;;11.00;99.90;;;;;;5077217;28;20539;-57
2022/03/04 09:36:34;;;;;;;21.50;19.27;;;10.70;99.90;;;;;;5076189;28;20984;-55
2022/03/04 09:39:04;;;;;;;25.30;19.53;;;11.10;99.90;;;;;;5077111;28;20543;-52
2022/03/04 09:41:41;;;;;;;21.80;18.93;;;11.30;99.90;;;;;;5076698;28;20469;-53
2022/03/04 09:44:11;;;;;;;22.70;18.77;;;11.20;99.90;;;;;;5077409;28;20511;-57
2022/03/04 09:46:40;;;;;;;19.90;17.10;;;11.40;99.90;;;;;;5075904;28;20471;-56
2022/03/04 09:49:16;;;;;;;24.40;18.73;;;11.30;99.90;;;;;;5076946;28;20812;-58
2022/03/04 09:51:46;;;;;;;22.10;18.43;;;11.30;99.90;;;;;;5076803;28;20464;-58
2022/03/04 09:54:14;;;;;;;23.47;18.40;;;11.60;99.90;;;;;;5076766;28;20875;-58
2022/03/04 09:56:48;;;;;;;22.70;19.00;;;11.90;99.90;;;;;;5076109;28;20495;-59
2022/03/04 09:59:27;;;;;;;23.10;19.20;;;12.10;99.90;;;;;;5076804;28;20476;-59
2022/03/04 10:02:00;;;;;;;21.70;18.23;;;12.30;99.90;;;;;;5076105;28;20454;-59
2022/03/04 10:04:33;;;;;;;21.23;18.07;;;12.10;99.90;;;;;;5076471;28;20461;-59
2022/03/04 10:07:10;;;;;;;22.50;19.17;;;11.90;99.90;;;;;;5076305;28;20453;-58
2022/03/04 10:09:40;;;;;;;22.07;19.47;;;12.20;99.90;;;;;;5076724;28;20461;-59
2022/03/04 10:12:11;;;;;;;22.20;18.30;;;12.40;99.90;;;;;;5075532;28;20454;-58
2022/03/04 10:14:56;;;;;;;24.80;19.23;;;12.70;99.90;;;;;;5076279;28;20514;-57
2022/03/04 10:17:31;;;;;;;22.60;17.63;;;12.80;99.90;;;;;;5075238;28;20898;-59
2022/03/04 10:20:04;;;;;;;23.93;18.60;;;13.00;99.90;;;;;;5075420;28;20484;-58
2022/03/04 10:22:46;;;;;;;22.73;18.63;;;13.00;99.90;;;;;;5075074;28;20469;-59
2022/03/04 10:25:28;;;;;;;20.60;18.40;;;13.30;99.90;;;;;;5076335;28;20461;-56
2022/03/04 10:28:09;;;;;;;22.10;18.00;;;13.00;99.90;;;;;;5075615;28;20465;-55
2022/03/04 10:30:44;;;;;;;20.70;18.20;;;13.10;99.90;;;;;;5076002;28;20559;-58
2022/03/04 10:33:18;;;;;;;22.50;18.37;;;13.30;99.90;;;;;;5075796;28;20917;-54
2022/03/04 10:36:08;;;;;;;21.53;19.17;;;13.60;99.90;;;;;;5077043;28;20492;-56
2022/03/04 10:38:41;;;;;;;21.03;18.50;;;13.70;99.90;;;;;;5075321;28;20465;-57
2022/03/04 10:41:25;;;;;;;24.90;19.47;;;14.10;99.90;;;;;;5077161;28;20603;-58
2022/03/04 10:43:52;;;;;;;19.87;17.40;;;14.50;99.90;;;;;;5080410;28;20809;-59
2022/03/04 10:46:24;;;;;;;28.60;17.50;;;14.50;99.90;;;;;;5079878;28;20543;-55
2022/03/04 10:48:53;;;;;;;19.30;16.97;;;14.40;99.90;;;;;;5079827;28;20465;-59
2022/03/04 10:51:38;;;;;;;20.30;17.03;;;14.20;99.90;;;;;;5080353;28;20476;-56
2022/03/04 10:54:16;;;;;;;17.93;16.03;;;14.40;99.90;;;;;;5079995;28;20924;-58
2022/03/04 10:57:07;;;;;;;19.50;17.70;;;14.50;99.90;;;;;;5079614;28;20499;-57
2022/03/04 10:59:35;;;;;;;17.37;15.67;;;14.70;99.90;;;;;;5059966;28;20894;-57
2022/03/04 11:02:04;;;;;;;19.20;17.20;;;14.60;99.90;;;;;;5080097;28;20544;-55
2022/03/04 11:04:44;;;;;;;20.40;16.97;;;14.50;99.90;;;;;;5079445;28;20461;-55
2022/03/04 11:07:19;;;;;;;18.97;16.03;;;14.10;99.90;;;;;;5079663;28;20758;-56
2022/03/04 11:09:50;;;;;;;16.50;14.00;;;14.40;99.90;;;;;;5079114;28;20457;-57
2022/03/04 11:12:20;;;;;;;15.10;13.50;;;14.80;99.90;;;;;;5079135;28;20524;-59
2022/03/04 11:14:48;;;;;;;14.43;12.97;;;14.70;99.90;;;;;;5079323;28;20500;-56
2022/03/04 11:17:17;;;;;;;20.40;14.53;;;14.70;99.90;;;;;;5079958;28;20879;-55
2022/03/04 11:19:45;;;;;;;14.93;13.47;;;14.80;99.90;;;;;;5083329;28;20953;-58
2022/03/04 11:22:16;;;;;;;17.43;14.93;;;15.10;99.90;;;;;;5078612;28;20465;-59
2022/03/04 11:24:49;;;;;;;17.27;15.40;;;15.40;99.90;;;;;;5078688;28;20465;-56
2022/03/04 11:27:29;;;;;;;20.53;18.40;;;15.10;99.90;;;;;;5079334;28;20465;-56
2022/03/04 11:29:59;;;;;;;17.40;15.73;;;15.00;99.90;;;;;;5079226;28;20465;-60
2022/03/04 11:32:32;;;;;;;19.47;16.37;;;14.70;99.90;;;;;;5078132;28;20575;-59
2022/03/04 11:35:03;;;;;;;18.00;16.10;;;14.80;99.90;;;;;;5078548;28;20526;-58
2022/03/04 11:37:50;;;;;;;17.90;16.00;;;14.90;99.90;;;;;;5078095;28;20823;-58
2022/03/04 11:40:38;;;;;;;20.50;17.07;;;15.50;99.90;;;;;;5079452;28;20461;-60
2022/03/04 11:43:08;;;;;;;18.60;16.60;;;15.90;99.90;;;;;;5069621;28;20505;-58
2022/03/04 11:45:37;;;;;;;16.60;14.90;;;15.30;99.90;;;;;;5078914;28;20470;-51
2022/03/04 11:48:09;;;;;;;21.80;16.70;;;14.70;99.90;;;;;;5079501;28;20457;-54
2022/03/04 11:50:48;;;;;;;19.60;16.10;;;15.30;99.90;;;;;;5078642;28;20519;-57
2022/03/04 11:53:22;;;;;;;16.93;15.27;;;15.60;99.90;;;;;;5077497;28;20907;-55
2022/03/04 11:56:15;;;;;;;17.93;16.03;;;15.90;99.90;;;;;;5079155;28;20583;-58
2022/03/04 11:59:25;;;;;;;17.90;15.47;;;16.00;99.90;;;;;;5078300;28;20472;-57
2022/03/04 12:02:02;;;;;;;20.03;15.10;;;16.10;99.90;;;;;;4995452;28;20491;-54
2022/03/04 12:04:29;;;;;;;17.13;15.50;;;15.80;99.90;;;;;;4996528;28;20870;-55
2022/03/04 12:07:12;;;;;;;17.60;15.90;;;16.20;99.90;;;;;;5044587;28;20474;-58
2022/03/04 12:09:49;;;;;;;19.23;15.80;;;16.30;99.90;;;;;;5078711;28;20466;-56
2022/03/04 12:12:24;;;;;;;19.17;17.17;;;16.90;99.90;;;;;;5077714;28;20551;-53
2022/03/04 12:15:38;;;;;;;18.47;15.83;;;16.90;99.90;;;;;;5078599;28;20496;-57
2022/03/04 12:18:18;;;;;;;19.63;15.37;;;17.00;99.90;;;;;;5078507;28;20940;-59
2022/03/04 12:21:29;;;;;;;17.63;15.90;;;17.00;99.90;;;;;;5078249;28;20515;-55
2022/03/04 12:24:07;;;;;;;19.30;16.60;;;17.20;99.90;;;;;;5076298;28;20744;-57
2022/03/04 12:26:37;;;;;;;20.03;15.43;;;17.30;99.90;;;;;;5077033;28;20453;-58
2022/03/04 12:29:09;;;;;;;16.07;14.37;;;17.30;99.90;;;;;;5065144;28;20754;-58
2022/03/04 12:31:42;;;;;;;16.37;14.70;;;17.10;99.90;;;;;;5064113;28;20880;-59
2022/03/04 12:34:18;;;;;;;16.30;14.77;;;16.90;99.90;;;;;;5077142;28;20576;-60
2022/03/04 12:36:45;;;;;;;16.23;14.47;;;16.80;99.90;;;;;;5076873;28;20828;-56
2022/03/04 12:39:37;;;;;;;15.13;13.73;;;16.50;99.90;;;;;;5077171;28;20818;-59
2022/03/04 12:42:10;;;;;;;15.40;13.80;;;14.90;99.90;;;;;;5078426;28;20461;-59
2022/03/04 12:44:38;;;;;;;16.27;14.67;;;15.00;99.90;;;;;;5076845;28;20477;-60
2022/03/04 12:47:20;;;;;;;17.20;15.53;;;15.40;99.90;;;;;;5078316;28;20464;-60
2022/03/04 12:49:49;;;;;;;15.27;13.87;;;15.70;99.90;;;;;;5077615;28;20465;-60
2022/03/04 12:52:22;;;;;;;15.50;13.90;;;15.00;99.90;;;;;;5076162;28;20461;-60
2022/03/04 12:54:57;;;;;;;15.60;13.60;;;15.40;99.90;;;;;;5076218;28;20483;-60
2022/03/04 12:57:31;;;;;;;13.60;12.20;;;16.10;99.90;;;;;;5077581;28;20550;-58
2022/03/04 12:59:58;;;;;;;12.33;11.10;;;16.60;99.90;;;;;;5076909;28;20457;-59